sensor_id;sensor_type;location;lat;lon;timestamp;P1;durP1;ratioP1;P2;durP2;ratioP2
49444;SDS011;35323;43.080;-81.378;2022-09-24T00:02:25;4.00;;;1.08;;
49444;SDS011;35323;43.080;-81.378;2022-09-24T00:04:54;1.58;;;1.48;;
49444;SDS011;35323;43.080;-81.378;2022-09-24T00:07:25;0.88;;;0.88;;
49444;SDS011;35323;43.080;-81.378;2022-09-24T00:09:54;0.98;;;0.40;;
49444;SDS011;35323;43.080;-81.378;2022-09-24T00:12:22;1.38;;;0.70;;
49444;SDS011;35323;43.080;-81.378;2022-09-24T00:14:49;1.23;;;0.90;;
49444;SDS011;35323;43.080;-81.378;2022-09-24T00:17:17;1.50;;;0.88;;
49444;SDS011;35323;43.080;-81.378;2022-09-24T00:19:44;3.05;;;1.52;;
49444;SDS011;35323;43.080;-81.378;2022-09-24T00:22:18;3.55;;;2.33;;
49444;SDS011;35323;43.080;-81.378;2022-09-24T00:24:47;3.22;;;1.52;;
49444;SDS011;35323;43.080;-81.378;2022-09-24T00:27:35;4.47;;;1.13;;
49444;SDS011;35323;43.080;-81.378;2022-09-24T00:30:03;1.27;;;0.77;;
49444;SDS011;35323;43.080;-81.378;2022-09-24T00:32:31;2.85;;;1.00;;
49444;SDS011;35323;43.080;-81.378;2022-09-24T00:34:59;2.40;;;1.00;;
49444;SDS011;35323;43.080;-81.378;2022-09-24T00:37:33;3.38;;;1.17;;
49444;SDS011;35323;43.080;-81.378;2022-09-24T00:40:00;1.52;;;0.75;;
49444;SDS011;35323;43.080;-81.378;2022-09-24T00:42:28;1.25;;;0.70;;
49444;SDS011;35323;43.080;-81.378;2022-09-24T00:45:00;1.33;;;1.23;;
49444;SDS011;35323;43.080;-81.378;2022-09-24T00:50:15;0.57;;;0.57;;
49444;SDS011;35323;43.080;-81.378;2022-09-24T00:55:25;11.77;;;1.05;;
49444;SDS011;35323;43.080;-81.378;2022-09-24T00:57:56;3.60;;;0.82;;
49444;SDS011;35323;43.080;-81.378;2022-09-24T01:00:24;3.72;;;0.75;;
49444;SDS011;35323;43.080;-81.378;2022-09-24T01:03:01;1.08;;;0.70;;
49444;SDS011;35323;43.080;-81.378;2022-09-24T01:05:30;7.50;;;1.50;;
49444;SDS011;35323;43.080;-81.378;2022-09-24T01:07:57;1.90;;;0.88;;
49444;SDS011;35323;43.080;-81.378;2022-09-24T01:10:39;1.00;;;0.65;;
49444;SDS011;35323;43.080;-81.378;2022-09-24T01:13:42;4.10;;;0.52;;
49444;SDS011;35323;43.080;-81.378;2022-09-24T01:18:43;5.50;;;1.77;;
49444;SDS011;35323;43.080;-81.378;2022-09-24T01:24:16;16.33;;;3.40;;
49444;SDS011;35323;43.080;-81.378;2022-09-24T01:29:56;2.70;;;1.90;;
49444;SDS011;35323;43.080;-81.378;2022-09-24T01:35:25;36.88;;;8.43;;
49444;SDS011;35323;43.080;-81.378;2022-09-24T01:37:59;30.58;;;7.22;;
49444;SDS011;35323;43.080;-81.378;2022-09-24T01:40:28;46.88;;;7.88;;
49444;SDS011;35323;43.080;-81.378;2022-09-24T01:42:56;15.93;;;5.50;;
49444;SDS011;35323;43.080;-81.378;2022-09-24T01:45:25;23.75;;;7.30;;
49444;SDS011;35323;43.080;-81.378;2022-09-24T01:47:58;23.33;;;5.10;;
49444;SDS011;35323;43.080;-81.378;2022-09-24T01:50:30;16.67;;;2.90;;
49444;SDS011;35323;43.080;-81.378;2022-09-24T02:19:50;3.88;;;1.90;;
49444;SDS011;35323;43.080;-81.378;2022-09-24T02:22:19;7.20;;;1.58;;
49444;SDS011;35323;43.080;-81.378;2022-09-24T02:24:47;1.90;;;1.10;;
49444;SDS011;35323;43.080;-81.378;2022-09-24T02:27:19;1.75;;;0.77;;
49444;SDS011;35323;43.080;-81.378;2022-09-24T02:29:48;0.95;;;0.75;;
49444;SDS011;35323;43.080;-81.378;2022-09-24T02:32:20;1.00;;;0.55;;
49444;SDS011;35323;43.080;-81.378;2022-09-24T02:34:50;2.35;;;0.68;;
49444;SDS011;35323;43.080;-81.378;2022-09-24T02:37:21;5.88;;;0.70;;
49444;SDS011;35323;43.080;-81.378;2022-09-24T02:39:51;1.55;;;1.40;;
49444;SDS011;35323;43.080;-81.378;2022-09-24T02:42:19;0.85;;;0.63;;
49444;SDS011;35323;43.080;-81.378;2022-09-24T02:44:51;1.65;;;1.13;;
49444;SDS011;35323;43.080;-81.378;2022-09-24T02:47:21;1.52;;;0.70;;
49444;SDS011;35323;43.080;-81.378;2022-09-24T02:49:52;2.75;;;0.70;;
49444;SDS011;35323;43.080;-81.378;2022-09-24T02:52:22;2.40;;;0.73;;
49444;SDS011;35323;43.080;-81.378;2022-09-24T02:54:49;4.55;;;0.70;;
49444;SDS011;35323;43.080;-81.378;2022-09-24T02:57:18;4.18;;;1.20;;
49444;SDS011;35323;43.080;-81.378;2022-09-24T02:59:47;3.78;;;1.13;;
49444;SDS011;35323;43.080;-81.378;2022-09-24T03:02:15;1.55;;;0.88;;
49444;SDS011;35323;43.080;-81.378;2022-09-24T03:04:43;2.75;;;1.42;;
49444;SDS011;35323;43.080;-81.378;2022-09-24T03:07:11;2.03;;;1.60;;
49444;SDS011;35323;43.080;-81.378;2022-09-24T03:09:40;3.22;;;2.13;;
49444;SDS011;35323;43.080;-81.378;2022-09-24T03:12:07;1.58;;;1.40;;
49444;SDS011;35323;43.080;-81.378;2022-09-24T03:14:35;3.67;;;2.03;;
49444;SDS011;35323;43.080;-81.378;2022-09-24T03:17:02;4.18;;;2.38;;
49444;SDS011;35323;43.080;-81.378;2022-09-24T03:19:31;1.73;;;1.52;;
49444;SDS011;35323;43.080;-81.378;2022-09-24T03:22:00;2.65;;;1.45;;
49444;SDS011;35323;43.080;-81.378;2022-09-24T03:24:28;2.10;;;1.80;;
49444;SDS011;35323;43.080;-81.378;2022-09-24T03:26:55;3.83;;;1.23;;
49444;SDS011;35323;43.080;-81.378;2022-09-24T03:29:23;1.77;;;1.50;;
49444;SDS011;35323;43.080;-81.378;2022-09-24T03:32:10;2.67;;;2.35;;
49444;SDS011;35323;43.080;-81.378;2022-09-24T03:34:41;3.50;;;1.52;;
49444;SDS011;35323;43.080;-81.378;2022-09-24T03:37:10;2.65;;;1.25;;
49444;SDS011;35323;43.080;-81.378;2022-09-24T03:39:44;1.25;;;0.77;;
49444;SDS011;35323;43.080;-81.378;2022-09-24T03:42:14;5.70;;;1.50;;
49444;SDS011;35323;43.080;-81.378;2022-09-24T03:44:47;2.60;;;1.33;;
49444;SDS011;35323;43.080;-81.378;2022-09-24T03:47:16;2.80;;;1.52;;
49444;SDS011;35323;43.080;-81.378;2022-09-24T03:49:44;2.83;;;2.35;;
49444;SDS011;35323;43.080;-81.378;2022-09-24T03:52:12;1.55;;;1.30;;
49444;SDS011;35323;43.080;-81.378;2022-09-24T03:54:39;7.45;;;6.45;;
49444;SDS011;35323;43.080;-81.378;2022-09-24T03:57:07;5.70;;;3.60;;
49444;SDS011;35323;43.080;-81.378;2022-09-24T03:59:36;2.67;;;2.47;;
49444;SDS011;35323;43.080;-81.378;2022-09-24T04:02:03;3.13;;;2.50;;
49444;SDS011;35323;43.080;-81.378;2022-09-24T04:04:31;4.80;;;2.50;;
49444;SDS011;35323;43.080;-81.378;2022-09-24T04:06:58;9.07;;;3.00;;
49444;SDS011;35323;43.080;-81.378;2022-09-24T04:09:26;3.65;;;2.55;;
49444;SDS011;35323;43.080;-81.378;2022-09-24T04:11:56;2.40;;;1.75;;
49444;SDS011;35323;43.080;-81.378;2022-09-24T04:14:25;3.75;;;2.40;;
49444;SDS011;35323;43.080;-81.378;2022-09-24T04:16:56;4.53;;;2.22;;
49444;SDS011;35323;43.080;-81.378;2022-09-24T04:22:08;3.72;;;1.70;;
49444;SDS011;35323;43.080;-81.378;2022-09-24T04:24:36;3.28;;;1.23;;
49444;SDS011;35323;43.080;-81.378;2022-09-24T04:27:05;5.00;;;2.33;;
49444;SDS011;35323;43.080;-81.378;2022-09-24T04:29:32;5.88;;;1.40;;
49444;SDS011;35323;43.080;-81.378;2022-09-24T04:32:00;1.52;;;1.10;;
49444;SDS011;35323;43.080;-81.378;2022-09-24T04:34:31;1.25;;;0.95;;
49444;SDS011;35323;43.080;-81.378;2022-09-24T04:36:59;1.85;;;0.75;;
49444;SDS011;35323;43.080;-81.378;2022-09-24T04:39:26;2.05;;;0.88;;
49444;SDS011;35323;43.080;-81.378;2022-09-24T04:41:55;0.80;;;0.68;;
49444;SDS011;35323;43.080;-81.378;2022-09-24T04:44:23;0.68;;;0.65;;
49444;SDS011;35323;43.080;-81.378;2022-09-24T04:46:52;0.85;;;0.85;;
49444;SDS011;35323;43.080;-81.378;2022-09-24T04:49:27;1.73;;;1.25;;
49444;SDS011;35323;43.080;-81.378;2022-09-24T04:51:57;6.55;;;2.28;;
49444;SDS011;35323;43.080;-81.378;2022-09-24T04:54:26;4.93;;;2.90;;
49444;SDS011;35323;43.080;-81.378;2022-09-24T04:56:56;5.05;;;1.92;;
49444;SDS011;35323;43.080;-81.378;2022-09-24T04:59:25;3.33;;;1.77;;
49444;SDS011;35323;43.080;-81.378;2022-09-24T05:01:57;3.97;;;1.27;;
49444;SDS011;35323;43.080;-81.378;2022-09-24T05:04:25;1.17;;;0.98;;
49444;SDS011;35323;43.080;-81.378;2022-09-24T05:06:55;2.22;;;1.42;;
49444;SDS011;35323;43.080;-81.378;2022-09-24T05:09:23;2.78;;;1.92;;
49444;SDS011;35323;43.080;-81.378;2022-09-24T05:11:51;2.05;;;1.15;;
49444;SDS011;35323;43.080;-81.378;2022-09-24T05:14:18;2.17;;;1.50;;
49444;SDS011;35323;43.080;-81.378;2022-09-24T05:16:45;4.13;;;1.17;;
49444;SDS011;35323;43.080;-81.378;2022-09-24T05:19:14;3.95;;;1.15;;
49444;SDS011;35323;43.080;-81.378;2022-09-24T05:21:47;2.10;;;1.02;;
49444;SDS011;35323;43.080;-81.378;2022-09-24T05:24:17;1.50;;;1.08;;
49444;SDS011;35323;43.080;-81.378;2022-09-24T05:26:44;1.30;;;1.20;;
49444;SDS011;35323;43.080;-81.378;2022-09-24T05:29:31;1.98;;;1.10;;
49444;SDS011;35323;43.080;-81.378;2022-09-24T05:32:01;5.63;;;1.42;;
49444;SDS011;35323;43.080;-81.378;2022-09-24T05:34:31;2.22;;;0.95;;
49444;SDS011;35323;43.080;-81.378;2022-09-24T05:37:01;8.60;;;1.40;;
49444;SDS011;35323;43.080;-81.378;2022-09-24T05:39:29;1.13;;;1.02;;
49444;SDS011;35323;43.080;-81.378;2022-09-24T05:41:59;2.42;;;1.02;;
49444;SDS011;35323;43.080;-81.378;2022-09-24T05:44:30;3.30;;;0.98;;
49444;SDS011;35323;43.080;-81.378;2022-09-24T05:47:01;0.65;;;0.65;;
49444;SDS011;35323;43.080;-81.378;2022-09-24T05:49:31;1.77;;;0.98;;
49444;SDS011;35323;43.080;-81.378;2022-09-24T05:52:02;1.73;;;0.80;;
49444;SDS011;35323;43.080;-81.378;2022-09-24T05:54:32;3.22;;;0.63;;
49444;SDS011;35323;43.080;-81.378;2022-09-24T05:57:01;0.60;;;0.60;;
49444;SDS011;35323;43.080;-81.378;2022-09-24T05:59:32;1.42;;;1.30;;
49444;SDS011;35323;43.080;-81.378;2022-09-24T06:01:59;0.63;;;0.57;;
49444;SDS011;35323;43.080;-81.378;2022-09-24T06:04:27;0.77;;;0.68;;
49444;SDS011;35323;43.080;-81.378;2022-09-24T06:06:56;0.60;;;0.60;;
49444;SDS011;35323;43.080;-81.378;2022-09-24T06:09:24;1.20;;;0.80;;
49444;SDS011;35323;43.080;-81.378;2022-09-24T06:11:51;1.55;;;0.60;;
49444;SDS011;35323;43.080;-81.378;2022-09-24T06:14:23;0.70;;;0.60;;
49444;SDS011;35323;43.080;-81.378;2022-09-24T06:16:53;0.50;;;0.50;;
49444;SDS011;35323;43.080;-81.378;2022-09-24T06:19:21;2.38;;;0.60;;
49444;SDS011;35323;43.080;-81.378;2022-09-24T06:21:49;1.30;;;1.00;;
49444;SDS011;35323;43.080;-81.378;2022-09-24T06:24:19;0.80;;;0.75;;
49444;SDS011;35323;43.080;-81.378;2022-09-24T06:26:47;0.65;;;0.65;;
49444;SDS011;35323;43.080;-81.378;2022-09-24T06:29:14;1.42;;;0.82;;
49444;SDS011;35323;43.080;-81.378;2022-09-24T06:31:42;1.00;;;0.70;;
49444;SDS011;35323;43.080;-81.378;2022-09-24T06:34:12;0.98;;;0.70;;
49444;SDS011;35323;43.080;-81.378;2022-09-24T06:36:41;1.92;;;1.70;;
49444;SDS011;35323;43.080;-81.378;2022-09-24T06:39:09;0.57;;;0.57;;
49444;SDS011;35323;43.080;-81.378;2022-09-24T06:41:37;1.08;;;1.05;;
49444;SDS011;35323;43.080;-81.378;2022-09-24T06:44:04;0.95;;;0.70;;
49444;SDS011;35323;43.080;-81.378;2022-09-24T06:46:32;0.93;;;0.55;;
49444;SDS011;35323;43.080;-81.378;2022-09-24T06:48:59;0.40;;;0.40;;
49444;SDS011;35323;43.080;-81.378;2022-09-24T06:51:30;2.83;;;0.80;;
49444;SDS011;35323;43.080;-81.378;2022-09-24T06:53:57;1.13;;;0.63;;
49444;SDS011;35323;43.080;-81.378;2022-09-24T06:56:25;1.63;;;0.80;;
49444;SDS011;35323;43.080;-81.378;2022-09-24T06:58:55;2.47;;;0.70;;
49444;SDS011;35323;43.080;-81.378;2022-09-24T07:01:26;0.85;;;0.55;;
49444;SDS011;35323;43.080;-81.378;2022-09-24T07:03:56;0.57;;;0.57;;
49444;SDS011;35323;43.080;-81.378;2022-09-24T07:06:24;1.35;;;0.70;;
49444;SDS011;35323;43.080;-81.378;2022-09-24T07:08:51;1.10;;;1.00;;
49444;SDS011;35323;43.080;-81.378;2022-09-24T07:11:19;0.40;;;0.40;;
49444;SDS011;35323;43.080;-81.378;2022-09-24T07:13:50;1.42;;;0.60;;
49444;SDS011;35323;43.080;-81.378;2022-09-24T07:16:18;0.57;;;0.57;;
49444;SDS011;35323;43.080;-81.378;2022-09-24T07:18:45;1.25;;;1.08;;
49444;SDS011;35323;43.080;-81.378;2022-09-24T07:21:13;1.48;;;0.85;;
49444;SDS011;35323;43.080;-81.378;2022-09-24T07:23:40;1.92;;;1.63;;
49444;SDS011;35323;43.080;-81.378;2022-09-24T07:26:08;2.15;;;1.40;;
49444;SDS011;35323;43.080;-81.378;2022-09-24T07:28:38;2.17;;;0.90;;
49444;SDS011;35323;43.080;-81.378;2022-09-24T07:31:08;0.60;;;0.60;;
49444;SDS011;35323;43.080;-81.378;2022-09-24T07:33:40;1.42;;;0.68;;
49444;SDS011;35323;43.080;-81.378;2022-09-24T07:36:10;0.40;;;0.40;;
49444;SDS011;35323;43.080;-81.378;2022-09-24T07:38:37;1.15;;;0.80;;
49444;SDS011;35323;43.080;-81.378;2022-09-24T07:41:05;1.42;;;0.85;;
49444;SDS011;35323;43.080;-81.378;2022-09-24T07:43:35;0.75;;;0.75;;
49444;SDS011;35323;43.080;-81.378;2022-09-24T07:46:02;2.28;;;1.52;;
49444;SDS011;35323;43.080;-81.378;2022-09-24T07:48:30;0.77;;;0.77;;
49444;SDS011;35323;43.080;-81.378;2022-09-24T07:50:57;3.22;;;0.90;;
49444;SDS011;35323;43.080;-81.378;2022-09-24T07:53:25;2.15;;;0.90;;
49444;SDS011;35323;43.080;-81.378;2022-09-24T07:55:52;0.77;;;0.77;;
49444;SDS011;35323;43.080;-81.378;2022-09-24T07:58:24;1.47;;;0.70;;
49444;SDS011;35323;43.080;-81.378;2022-09-24T08:00:56;0.68;;;0.50;;
49444;SDS011;35323;43.080;-81.378;2022-09-24T08:03:23;0.80;;;0.80;;
49444;SDS011;35323;43.080;-81.378;2022-09-24T08:05:56;0.95;;;0.80;;
49444;SDS011;35323;43.080;-81.378;2022-09-24T08:08:30;1.40;;;1.27;;
49444;SDS011;35323;43.080;-81.378;2022-09-24T08:11:02;1.52;;;1.00;;
49444;SDS011;35323;43.080;-81.378;2022-09-24T08:13:36;1.15;;;1.00;;
49444;SDS011;35323;43.080;-81.378;2022-09-24T08:16:04;1.35;;;1.25;;
49444;SDS011;35323;43.080;-81.378;2022-09-24T08:18:32;1.00;;;0.93;;
49444;SDS011;35323;43.080;-81.378;2022-09-24T08:21:04;0.90;;;0.77;;
49444;SDS011;35323;43.080;-81.378;2022-09-24T08:23:32;1.10;;;0.80;;
49444;SDS011;35323;43.080;-81.378;2022-09-24T08:26:01;0.93;;;0.85;;
49444;SDS011;35323;43.080;-81.378;2022-09-24T08:28:30;2.50;;;1.30;;
49444;SDS011;35323;43.080;-81.378;2022-09-24T08:31:02;1.88;;;1.75;;
49444;SDS011;35323;43.080;-81.378;2022-09-24T08:33:31;1.98;;;1.77;;
49444;SDS011;35323;43.080;-81.378;2022-09-24T08:36:00;0.85;;;0.65;;
49444;SDS011;35323;43.080;-81.378;2022-09-24T08:38:31;0.77;;;0.70;;
49444;SDS011;35323;43.080;-81.378;2022-09-24T08:41:22;1.20;;;0.80;;
49444;SDS011;35323;43.080;-81.378;2022-09-24T08:44:00;2.22;;;1.50;;
49444;SDS011;35323;43.080;-81.378;2022-09-24T08:46:34;0.52;;;0.52;;
49444;SDS011;35323;43.080;-81.378;2022-09-24T08:49:26;1.02;;;0.70;;
49444;SDS011;35323;43.080;-81.378;2022-09-24T08:54:44;1.35;;;0.98;;
49444;SDS011;35323;43.080;-81.378;2022-09-24T09:10:23;1.02;;;0.90;;
49444;SDS011;35323;43.080;-81.378;2022-09-24T09:15:39;1.73;;;1.63;;
49444;SDS011;35323;43.080;-81.378;2022-09-24T09:18:20;0.85;;;0.80;;
49444;SDS011;35323;43.080;-81.378;2022-09-24T09:20:51;1.67;;;1.00;;
49444;SDS011;35323;43.080;-81.378;2022-09-24T09:23:31;1.67;;;1.08;;
49444;SDS011;35323;43.080;-81.378;2022-09-24T09:26:03;1.55;;;1.45;;
49444;SDS011;35323;43.080;-81.378;2022-09-24T09:28:32;2.58;;;1.10;;
49444;SDS011;35323;43.080;-81.378;2022-09-24T09:44:43;1.05;;;0.98;;
49444;SDS011;35323;43.080;-81.378;2022-09-24T09:47:20;2.13;;;1.92;;
49444;SDS011;35323;43.080;-81.378;2022-09-24T09:49:50;1.55;;;1.40;;
49444;SDS011;35323;43.080;-81.378;2022-09-24T09:52:19;2.30;;;1.10;;
49444;SDS011;35323;43.080;-81.378;2022-09-24T09:54:47;1.52;;;1.10;;
49444;SDS011;35323;43.080;-81.378;2022-09-24T09:57:18;1.27;;;1.10;;
49444;SDS011;35323;43.080;-81.378;2022-09-24T09:59:49;2.95;;;1.60;;
49444;SDS011;35323;43.080;-81.378;2022-09-24T10:02:24;2.33;;;0.95;;
49444;SDS011;35323;43.080;-81.378;2022-09-24T10:04:54;1.55;;;0.88;;
49444;SDS011;35323;43.080;-81.378;2022-09-24T10:07:22;2.22;;;1.00;;
49444;SDS011;35323;43.080;-81.378;2022-09-24T10:12:27;2.45;;;1.45;;
49444;SDS011;35323;43.080;-81.378;2022-09-24T10:15:00;1.45;;;1.33;;
49444;SDS011;35323;43.080;-81.378;2022-09-24T10:17:29;1.63;;;1.00;;
49444;SDS011;35323;43.080;-81.378;2022-09-24T10:19:58;1.30;;;1.00;;
49444;SDS011;35323;43.080;-81.378;2022-09-24T10:22:26;1.27;;;1.20;;
49444;SDS011;35323;43.080;-81.378;2022-09-24T10:24:56;1.40;;;1.00;;
49444;SDS011;35323;43.080;-81.378;2022-09-24T10:27:29;2.28;;;1.38;;
49444;SDS011;35323;43.080;-81.378;2022-09-24T10:29:58;1.40;;;1.15;;
49444;SDS011;35323;43.080;-81.378;2022-09-24T10:32:55;1.35;;;1.10;;
49444;SDS011;35323;43.080;-81.378;2022-09-24T10:37:58;1.75;;;1.65;;
49444;SDS011;35323;43.080;-81.378;2022-09-24T10:40:29;2.13;;;1.80;;
49444;SDS011;35323;43.080;-81.378;2022-09-24T10:42:58;1.25;;;1.05;;
49444;SDS011;35323;43.080;-81.378;2022-09-24T10:45:41;1.25;;;1.15;;
49444;SDS011;35323;43.080;-81.378;2022-09-24T10:54:16;4.75;;;2.85;;
49444;SDS011;35323;43.080;-81.378;2022-09-24T10:56:48;2.45;;;1.65;;
49444;SDS011;35323;43.080;-81.378;2022-09-24T11:04:50;1.65;;;1.27;;
49444;SDS011;35323;43.080;-81.378;2022-09-24T11:10:00;2.75;;;1.67;;
49444;SDS011;35323;43.080;-81.378;2022-09-24T11:15:23;2.90;;;1.70;;
49444;SDS011;35323;43.080;-81.378;2022-09-24T13:13:37;2.47;;;1.35;;
49444;SDS011;35323;43.080;-81.378;2022-09-24T15:57:58;0.85;;;0.40;;
49444;SDS011;35323;43.080;-81.378;2022-09-24T16:35:26;0.55;;;0.45;;
49444;SDS011;35323;43.080;-81.378;2022-09-24T16:37:57;0.80;;;0.52;;
49444;SDS011;35323;43.080;-81.378;2022-09-24T16:40:26;0.30;;;0.30;;
49444;SDS011;35323;43.080;-81.378;2022-09-24T16:42:53;0.52;;;0.52;;
49444;SDS011;35323;43.080;-81.378;2022-09-24T16:45:21;0.65;;;0.60;;
49444;SDS011;35323;43.080;-81.378;2022-09-24T16:47:51;0.35;;;0.35;;
49444;SDS011;35323;43.080;-81.378;2022-09-24T16:50:21;0.40;;;0.40;;
49444;SDS011;35323;43.080;-81.378;2022-09-24T16:52:51;0.57;;;0.38;;
49444;SDS011;35323;43.080;-81.378;2022-09-24T16:55:27;1.17;;;0.57;;
49444;SDS011;35323;43.080;-81.378;2022-09-24T16:58:05;0.30;;;0.30;;
49444;SDS011;35323;43.080;-81.378;2022-09-24T17:00:32;5.25;;;0.50;;
49444;SDS011;35323;43.080;-81.378;2022-09-24T17:03:00;0.80;;;0.80;;
49444;SDS011;35323;43.080;-81.378;2022-09-24T17:05:28;3.72;;;0.40;;
49444;SDS011;35323;43.080;-81.378;2022-09-24T17:07:55;1.90;;;0.57;;
49444;SDS011;35323;43.080;-81.378;2022-09-24T17:10:23;0.45;;;0.30;;
49444;SDS011;35323;43.080;-81.378;2022-09-24T17:12:50;0.57;;;0.43;;
49444;SDS011;35323;43.080;-81.378;2022-09-24T17:15:22;0.70;;;0.40;;
49444;SDS011;35323;43.080;-81.378;2022-09-24T17:17:51;1.88;;;0.77;;
49444;SDS011;35323;43.080;-81.378;2022-09-24T17:20:19;0.38;;;0.38;;
49444;SDS011;35323;43.080;-81.378;2022-09-24T17:22:48;0.38;;;0.38;;
49444;SDS011;35323;43.080;-81.378;2022-09-24T17:25:16;0.88;;;0.32;;
49444;SDS011;35323;43.080;-81.378;2022-09-24T17:27:45;0.38;;;0.38;;
49444;SDS011;35323;43.080;-81.378;2022-09-24T17:30:14;0.40;;;0.40;;
49444;SDS011;35323;43.080;-81.378;2022-09-24T17:32:44;0.47;;;0.47;;
49444;SDS011;35323;43.080;-81.378;2022-09-24T17:35:13;0.57;;;0.57;;
49444;SDS011;35323;43.080;-81.378;2022-09-24T17:37:41;1.00;;;0.40;;
49444;SDS011;35323;43.080;-81.378;2022-09-24T17:40:08;0.63;;;0.40;;
49444;SDS011;35323;43.080;-81.378;2022-09-24T17:42:44;0.90;;;0.40;;
49444;SDS011;35323;43.080;-81.378;2022-09-24T17:45:13;0.28;;;0.20;;
49444;SDS011;35323;43.080;-81.378;2022-09-24T17:47:40;1.00;;;0.40;;
49444;SDS011;35323;43.080;-81.378;2022-09-24T17:50:23;1.30;;;0.80;;
49444;SDS011;35323;43.080;-81.378;2022-09-24T17:52:52;1.08;;;0.40;;
49444;SDS011;35323;43.080;-81.378;2022-09-24T17:55:19;1.75;;;0.30;;
49444;SDS011;35323;43.080;-81.378;2022-09-24T17:57:47;0.60;;;0.60;;
49444;SDS011;35323;43.080;-81.378;2022-09-24T18:00:14;0.40;;;0.40;;
49444;SDS011;35323;43.080;-81.378;2022-09-24T18:02:45;0.25;;;0.25;;
49444;SDS011;35323;43.080;-81.378;2022-09-24T18:05:16;0.30;;;0.30;;
49444;SDS011;35323;43.080;-81.378;2022-09-24T18:07:45;1.08;;;0.28;;
49444;SDS011;35323;43.080;-81.378;2022-09-24T18:10:13;0.73;;;0.50;;
49444;SDS011;35323;43.080;-81.378;2022-09-24T18:12:43;1.02;;;0.88;;
49444;SDS011;35323;43.080;-81.378;2022-09-24T18:15:10;2.38;;;2.17;;
49444;SDS011;35323;43.080;-81.378;2022-09-24T18:17:41;0.75;;;0.40;;
49444;SDS011;35323;43.080;-81.378;2022-09-24T18:20:08;0.70;;;0.70;;
49444;SDS011;35323;43.080;-81.378;2022-09-24T18:22:41;0.30;;;0.30;;
49444;SDS011;35323;43.080;-81.378;2022-09-24T18:25:10;0.68;;;0.50;;
49444;SDS011;35323;43.080;-81.378;2022-09-24T18:33:00;1.98;;;0.50;;
49444;SDS011;35323;43.080;-81.378;2022-09-24T18:35:31;0.40;;;0.40;;
49444;SDS011;35323;43.080;-81.378;2022-09-24T18:37:59;1.33;;;0.90;;
49444;SDS011;35323;43.080;-81.378;2022-09-24T18:40:28;0.30;;;0.30;;
49444;SDS011;35323;43.080;-81.378;2022-09-24T18:42:56;0.40;;;0.40;;
49444;SDS011;35323;43.080;-81.378;2022-09-24T18:45:26;0.40;;;0.40;;
49444;SDS011;35323;43.080;-81.378;2022-09-24T18:47:55;3.65;;;0.85;;
49444;SDS011;35323;43.080;-81.378;2022-09-24T18:50:24;0.20;;;0.20;;
49444;SDS011;35323;43.080;-81.378;2022-09-24T18:52:52;0.40;;;0.40;;
49444;SDS011;35323;43.080;-81.378;2022-09-24T18:55:25;0.93;;;0.57;;
49444;SDS011;35323;43.080;-81.378;2022-09-24T18:57:53;0.93;;;0.50;;
49444;SDS011;35323;43.080;-81.378;2022-09-24T19:00:24;0.40;;;0.40;;
49444;SDS011;35323;43.080;-81.378;2022-09-24T19:03:09;0.38;;;0.38;;
49444;SDS011;35323;43.080;-81.378;2022-09-24T19:05:37;0.88;;;0.73;;
49444;SDS011;35323;43.080;-81.378;2022-09-24T19:08:08;0.38;;;0.38;;
49444;SDS011;35323;43.080;-81.378;2022-09-24T19:10:40;2.38;;;0.38;;
49444;SDS011;35323;43.080;-81.378;2022-09-24T19:13:07;0.47;;;0.30;;
49444;SDS011;35323;43.080;-81.378;2022-09-24T19:15:35;0.40;;;0.40;;
49444;SDS011;35323;43.080;-81.378;2022-09-24T19:18:09;0.77;;;0.70;;
49444;SDS011;35323;43.080;-81.378;2022-09-24T19:20:39;0.40;;;0.30;;
49444;SDS011;35323;43.080;-81.378;2022-09-24T19:23:12;0.40;;;0.38;;
49444;SDS011;35323;43.080;-81.378;2022-09-24T19:25:42;1.10;;;0.47;;
49444;SDS011;35323;43.080;-81.378;2022-09-24T19:28:11;0.30;;;0.30;;
49444;SDS011;35323;43.080;-81.378;2022-09-24T19:30:40;0.32;;;0.32;;
49444;SDS011;35323;43.080;-81.378;2022-09-24T19:33:12;0.73;;;0.55;;
49444;SDS011;35323;43.080;-81.378;2022-09-24T19:35:42;0.38;;;0.30;;
49444;SDS011;35323;43.080;-81.378;2022-09-24T19:38:18;0.85;;;0.40;;
49444;SDS011;35323;43.080;-81.378;2022-09-24T19:40:56;0.57;;;0.57;;
49444;SDS011;35323;43.080;-81.378;2022-09-24T19:43:26;2.80;;;0.60;;
49444;SDS011;35323;43.080;-81.378;2022-09-24T19:45:57;0.40;;;0.40;;
49444;SDS011;35323;43.080;-81.378;2022-09-24T19:48:29;0.55;;;0.47;;
49444;SDS011;35323;43.080;-81.378;2022-09-24T19:50:58;0.70;;;0.70;;
49444;SDS011;35323;43.080;-81.378;2022-09-24T19:53:28;0.40;;;0.40;;
49444;SDS011;35323;43.080;-81.378;2022-09-24T19:55:57;0.60;;;0.40;;
49444;SDS011;35323;43.080;-81.378;2022-09-24T19:58:25;0.40;;;0.40;;
49444;SDS011;35323;43.080;-81.378;2022-09-24T20:01:00;0.40;;;0.40;;
49444;SDS011;35323;43.080;-81.378;2022-09-24T20:03:29;1.65;;;0.77;;
49444;SDS011;35323;43.080;-81.378;2022-09-24T20:05:58;4.75;;;1.95;;
49444;SDS011;35323;43.080;-81.378;2022-09-24T20:08:31;1.65;;;1.48;;
49444;SDS011;35323;43.080;-81.378;2022-09-24T20:11:05;1.38;;;0.82;;
49444;SDS011;35323;43.080;-81.378;2022-09-24T20:13:36;1.50;;;0.80;;
49444;SDS011;35323;43.080;-81.378;2022-09-24T20:16:14;1.25;;;0.60;;
49444;SDS011;35323;43.080;-81.378;2022-09-24T20:18:42;0.50;;;0.50;;
49444;SDS011;35323;43.080;-81.378;2022-09-24T20:21:12;1.98;;;0.68;;
49444;SDS011;35323;43.080;-81.378;2022-09-24T20:23:39;0.73;;;0.50;;
49444;SDS011;35323;43.080;-81.378;2022-09-24T20:26:08;0.75;;;0.60;;
49444;SDS011;35323;43.080;-81.378;2022-09-24T20:28:54;1.85;;;0.60;;
49444;SDS011;35323;43.080;-81.378;2022-09-24T20:31:22;0.68;;;0.55;;
49444;SDS011;35323;43.080;-81.378;2022-09-24T20:51:53;2.60;;;0.90;;
49444;SDS011;35323;43.080;-81.378;2022-09-24T20:54:23;1.85;;;0.65;;
49444;SDS011;35323;43.080;-81.378;2022-09-24T20:56:56;0.50;;;0.50;;
49444;SDS011;35323;43.080;-81.378;2022-09-24T20:59:24;1.20;;;0.95;;
49444;SDS011;35323;43.080;-81.378;2022-09-24T21:01:52;0.98;;;0.93;;
49444;SDS011;35323;43.080;-81.378;2022-09-24T21:04:20;1.08;;;0.98;;
49444;SDS011;35323;43.080;-81.378;2022-09-24T21:06:49;1.58;;;0.85;;
49444;SDS011;35323;43.080;-81.378;2022-09-24T21:09:22;0.90;;;0.90;;
49444;SDS011;35323;43.080;-81.378;2022-09-24T21:11:52;1.25;;;1.15;;
49444;SDS011;35323;43.080;-81.378;2022-09-24T21:14:20;1.55;;;1.38;;
49444;SDS011;35323;43.080;-81.378;2022-09-24T21:16:48;0.55;;;0.52;;
49444;SDS011;35323;43.080;-81.378;2022-09-24T21:19:17;1.30;;;0.95;;
49444;SDS011;35323;43.080;-81.378;2022-09-24T21:21:47;2.00;;;0.82;;
49444;SDS011;35323;43.080;-81.378;2022-09-24T21:24:17;3.00;;;1.58;;
49444;SDS011;35323;43.080;-81.378;2022-09-24T21:26:45;1.83;;;0.70;;
49444;SDS011;35323;43.080;-81.378;2022-09-24T21:31:49;0.60;;;0.60;;
49444;SDS011;35323;43.080;-81.378;2022-09-24T21:34:17;1.35;;;1.00;;
49444;SDS011;35323;43.080;-81.378;2022-09-24T21:36:47;1.60;;;0.60;;
49444;SDS011;35323;43.080;-81.378;2022-09-24T21:39:15;1.83;;;1.27;;
49444;SDS011;35323;43.080;-81.378;2022-09-24T21:41:44;1.33;;;0.88;;
49444;SDS011;35323;43.080;-81.378;2022-09-24T21:44:14;0.60;;;0.60;;
49444;SDS011;35323;43.080;-81.378;2022-09-24T21:46:43;2.55;;;1.25;;
49444;SDS011;35323;43.080;-81.378;2022-09-24T21:49:13;1.17;;;1.17;;
49444;SDS011;35323;43.080;-81.378;2022-09-24T21:51:42;0.85;;;0.52;;
49444;SDS011;35323;43.080;-81.378;2022-09-24T21:54:14;2.28;;;1.00;;
49444;SDS011;35323;43.080;-81.378;2022-09-24T21:56:45;0.88;;;0.88;;
49444;SDS011;35323;43.080;-81.378;2022-09-24T21:59:14;2.70;;;1.25;;